createdAt,value
2023-05-19T00:00:24.877Z,2.50
2023-05-19T00:02:54.288Z,2.17
2023-05-19T00:05:25.890Z,2.20
2023-05-19T00:08:00.065Z,2.17
2023-05-19T00:10:31.807Z,2.50
2023-05-19T00:13:01.939Z,2.63
2023-05-19T00:15:31.764Z,2.10
2023-05-19T00:18:00.662Z,2.40
2023-05-19T00:20:31.483Z,2.50
2023-05-19T00:23:00.782Z,2.30
2023-05-19T00:25:29.646Z,2.30
2023-05-19T00:27:59.330Z,2.33
2023-05-19T00:30:29.267Z,2.30
2023-05-19T00:32:58.504Z,2.20
2023-05-19T00:35:27.569Z,2.20
2023-05-19T00:37:58.079Z,2.63
2023-05-19T00:40:28.315Z,2.67
2023-05-19T00:42:57.126Z,2.53
2023-05-19T00:45:26.559Z,2.50
2023-05-19T00:47:55.833Z,2.33
2023-05-19T00:50:25.382Z,2.57
2023-05-19T00:52:54.706Z,2.53
2023-05-19T00:55:30.661Z,2.70
2023-05-19T00:57:59.995Z,2.73
2023-05-19T01:00:30.277Z,2.57
2023-05-19T01:02:59.654Z,2.77
2023-05-19T01:05:28.733Z,2.80
2023-05-19T01:07:57.940Z,2.60
2023-05-19T01:10:28.737Z,3.20
2023-05-19T01:12:57.672Z,2.87
2023-05-19T01:15:28.159Z,3.00
2023-05-19T01:18:03.450Z,2.67
2023-05-19T01:20:38.818Z,2.57
2023-05-19T01:23:27.149Z,2.80
2023-05-19T01:26:38.100Z,2.90
2023-05-19T01:29:29.414Z,3.03
2023-05-19T01:32:02.673Z,2.40
2023-05-19T01:34:32.777Z,2.60
2023-05-19T01:37:02.660Z,2.97
2023-05-19T01:39:32.346Z,2.80
2023-05-19T01:42:02.935Z,2.70
2023-05-19T01:44:33.828Z,3.00
2023-05-19T01:47:05.430Z,2.87
2023-05-19T01:49:35.102Z,2.90
2023-05-19T01:52:04.485Z,2.87
2023-05-19T01:54:33.536Z,2.60
2023-05-19T01:57:17.316Z,2.37
2023-05-19T01:59:57.775Z,2.83
2023-05-19T02:02:36.668Z,2.30
2023-05-19T02:05:15.034Z,2.47
2023-05-19T02:07:49.937Z,2.37
2023-05-19T02:10:24.372Z,2.57
2023-05-19T02:12:55.290Z,2.30
2023-05-19T02:15:29.186Z,2.47
2023-05-19T02:18:04.709Z,2.63
2023-05-19T02:20:34.238Z,2.27
2023-05-19T02:23:03.452Z,2.53
2023-05-19T02:25:33.177Z,2.80
2023-05-19T02:28:02.091Z,2.30
2023-05-19T02:30:32.293Z,2.43
2023-05-19T02:33:06.552Z,2.60
2023-05-19T02:35:35.618Z,2.03
2023-05-19T02:38:04.896Z,2.40
2023-05-19T02:40:33.863Z,1.90
2023-05-19T02:43:03.598Z,2.40
2023-05-19T02:45:32.511Z,2.33
2023-05-19T02:48:01.534Z,2.17
2023-05-19T02:50:32.236Z,2.17
2023-05-19T02:53:02.822Z,2.30
2023-05-19T02:55:31.936Z,2.60
2023-05-19T02:58:00.914Z,2.40
2023-05-19T03:00:30.111Z,2.57
2023-05-19T03:03:02.844Z,2.30
2023-05-19T03:05:33.680Z,2.20
2023-05-19T03:08:02.714Z,2.60
2023-05-19T03:10:34.643Z,2.57
2023-05-19T03:13:03.466Z,2.20
2023-05-19T03:15:32.608Z,2.40
2023-05-19T03:18:01.609Z,2.03
2023-05-19T03:20:30.994Z,2.23
2023-05-19T03:23:02.937Z,2.37
2023-05-19T03:25:32.323Z,2.30
2023-05-19T03:28:01.954Z,2.10
2023-05-19T03:30:31.040Z,2.13
2023-05-19T03:33:09.339Z,2.53
2023-05-19T03:35:38.485Z,2.40
2023-05-19T03:38:09.308Z,2.50
2023-05-19T03:40:38.559Z,1.90
2023-05-19T03:43:11.642Z,2.37
2023-05-19T03:45:47.786Z,2.30
2023-05-19T03:48:46.212Z,2.23
2023-05-19T03:51:34.958Z,2.50
2023-05-19T03:54:14.090Z,2.33
2023-05-19T03:56:44.863Z,2.07
2023-05-19T03:59:14.282Z,2.40
2023-05-19T04:01:43.860Z,2.07
2023-05-19T04:04:12.757Z,2.23
2023-05-19T04:06:41.740Z,2.20
2023-05-19T04:09:16.018Z,2.03
2023-05-19T04:11:45.349Z,2.20
2023-05-19T04:14:14.092Z,1.97
2023-05-19T04:16:43.155Z,2.20
2023-05-19T04:19:12.143Z,2.27
2023-05-19T04:21:41.262Z,1.90
2023-05-19T04:24:10.208Z,2.00
2023-05-19T04:26:42.500Z,2.20
2023-05-19T04:29:13.871Z,1.70
2023-05-19T04:31:44.833Z,1.90
2023-05-19T04:34:14.095Z,2.57
2023-05-19T04:36:43.683Z,2.70
2023-05-19T04:39:12.959Z,2.60
2023-05-19T04:41:46.465Z,2.57
2023-05-19T04:44:18.475Z,2.10
2023-05-19T04:46:50.217Z,2.30
2023-05-19T04:49:19.619Z,2.50
2023-05-19T04:51:51.116Z,2.50
2023-05-19T04:54:24.398Z,2.30
2023-05-19T04:56:55.367Z,2.40
2023-05-19T04:59:25.002Z,2.40
2023-05-19T05:01:54.467Z,2.00
2023-05-19T05:04:23.714Z,2.40
2023-05-19T05:06:53.056Z,2.30
2023-05-19T05:09:23.419Z,2.10
2023-05-19T05:11:55.626Z,2.20
2023-05-19T05:14:25.071Z,2.20
2023-05-19T05:16:55.302Z,2.03
2023-05-19T05:19:26.857Z,1.90
2023-05-19T05:21:57.544Z,2.07
2023-05-19T05:24:27.125Z,2.17
2023-05-19T05:27:02.154Z,2.50
2023-05-19T05:29:32.200Z,2.13
2023-05-19T05:32:01.390Z,2.30
2023-05-19T05:34:32.044Z,2.50
2023-05-19T05:37:01.090Z,2.50
2023-05-19T05:39:30.533Z,2.13
2023-05-19T05:41:59.604Z,2.20
2023-05-19T05:44:30.597Z,2.83
2023-05-19T05:47:00.794Z,2.30
2023-05-19T05:49:30.185Z,2.40
2023-05-19T05:52:05.672Z,2.40
2023-05-19T05:54:40.757Z,2.70
2023-05-19T05:57:11.513Z,2.80
2023-05-19T05:59:41.781Z,2.20
2023-05-19T06:02:11.005Z,2.50
2023-05-19T06:04:41.882Z,2.70
2023-05-19T06:07:10.656Z,2.40
2023-05-19T06:09:40.604Z,2.80
2023-05-19T06:12:11.396Z,2.40
2023-05-19T06:14:46.572Z,2.50
2023-05-19T06:17:27.468Z,2.67
2023-05-19T06:19:56.143Z,2.30
2023-05-19T06:22:24.872Z,2.70
2023-05-19T06:24:55.257Z,2.63
2023-05-19T06:27:24.051Z,2.53
2023-05-19T06:29:54.353Z,2.73
2023-05-19T06:32:23.265Z,2.43
2023-05-19T06:34:54.381Z,2.27
2023-05-19T06:37:23.844Z,2.60
2023-05-19T06:39:53.487Z,2.73
2023-05-19T06:42:23.050Z,2.40
2023-05-19T06:45:01.495Z,2.50
2023-05-19T06:47:30.329Z,3.00
2023-05-19T06:49:59.182Z,2.77
2023-05-19T06:52:31.804Z,2.43
2023-05-19T06:55:02.067Z,2.60
2023-05-19T06:57:32.380Z,2.80
2023-05-19T07:00:07.009Z,2.77
2023-05-19T07:02:36.460Z,2.60
2023-05-19T07:05:06.499Z,2.53
2023-05-19T07:07:36.022Z,2.50
2023-05-19T07:10:06.770Z,3.00
2023-05-19T07:12:35.973Z,3.20
2023-05-19T07:15:08.797Z,2.70
2023-05-19T07:17:39.314Z,3.33
2023-05-19T07:20:10.072Z,2.57
2023-05-19T07:22:39.991Z,2.87
2023-05-19T07:25:10.385Z,3.00
2023-05-19T07:27:39.253Z,2.87
2023-05-19T07:30:11.277Z,3.30
2023-05-19T07:32:39.943Z,2.97
2023-05-19T07:35:09.036Z,2.80
2023-05-19T07:37:38.349Z,2.77
2023-05-19T07:40:08.437Z,2.97
2023-05-19T07:42:37.229Z,3.10
2023-05-19T07:45:06.609Z,3.03
2023-05-19T07:47:36.727Z,3.10
2023-05-19T07:50:06.207Z,2.73
2023-05-19T07:52:34.903Z,2.90
2023-05-19T07:55:03.799Z,3.00
2023-05-19T07:57:32.498Z,3.03
2023-05-19T08:00:01.270Z,3.20
2023-05-19T08:02:42.709Z,3.70
2023-05-19T08:05:11.793Z,3.70
2023-05-19T08:07:40.902Z,3.70
2023-05-19T08:10:10.130Z,3.70
2023-05-19T08:12:38.795Z,3.43
2023-05-19T08:15:11.691Z,3.43
2023-05-19T08:17:41.747Z,3.87
2023-05-19T08:20:12.444Z,3.47
2023-05-19T08:22:41.488Z,3.83
2023-05-19T08:25:11.818Z,4.30
2023-05-19T08:27:40.641Z,3.77
2023-05-19T08:30:10.699Z,4.40
2023-05-19T08:32:39.477Z,3.83
2023-05-19T08:35:11.037Z,3.73
2023-05-19T08:37:39.840Z,4.30
2023-05-19T08:40:13.048Z,4.03
2023-05-19T08:42:41.731Z,2.90
2023-05-19T08:45:11.331Z,3.20
2023-05-19T08:47:40.923Z,2.77
2023-05-19T08:50:14.280Z,2.70
2023-05-19T08:55:48.221Z,2.93
2023-05-19T08:58:20.473Z,2.90
2023-05-19T09:00:49.755Z,2.63
2023-05-19T09:05:53.251Z,2.70
2023-05-19T09:08:22.619Z,2.80
2023-05-19T09:10:51.235Z,2.57
2023-05-19T09:13:20.206Z,2.53
2023-05-19T09:15:51.421Z,3.47
2023-05-19T09:18:20.285Z,3.00
2023-05-19T09:20:49.012Z,2.40
2023-05-19T09:23:19.538Z,2.30
2023-05-19T09:25:49.608Z,2.40
2023-05-19T09:28:25.287Z,2.43
2023-05-19T09:31:01.357Z,2.10
2023-05-19T09:33:31.087Z,1.90
2023-05-19T09:35:59.861Z,2.50
2023-05-19T09:38:30.059Z,2.00
2023-05-19T09:40:59.711Z,1.77
2023-05-19T09:43:30.373Z,2.17
2023-05-19T09:46:01.922Z,2.50
2023-05-19T09:48:30.617Z,2.03
2023-05-19T09:50:59.196Z,1.80
2023-05-19T09:53:32.540Z,2.43
2023-05-19T09:56:03.594Z,2.20
2023-05-19T09:58:34.614Z,2.60
2023-05-19T10:01:04.439Z,2.30
2023-05-19T10:03:34.502Z,2.70
2023-05-19T10:06:05.103Z,2.70
2023-05-19T10:08:35.894Z,2.50
2023-05-19T10:11:06.283Z,2.43
2023-05-19T10:13:36.348Z,2.70
2023-05-19T10:16:06.573Z,2.70
2023-05-19T10:18:38.380Z,2.57
2023-05-19T10:21:09.440Z,2.27
2023-05-19T10:23:40.084Z,2.93
2023-05-19T10:26:10.528Z,2.17
2023-05-19T10:28:44.097Z,2.53
2023-05-19T10:31:18.004Z,2.40
2023-05-19T10:34:00.957Z,2.63
2023-05-19T10:36:45.347Z,2.70
2023-05-19T10:39:20.111Z,2.57
2023-05-19T10:42:01.846Z,2.50
2023-05-19T10:44:41.865Z,2.50
2023-05-19T10:47:12.426Z,2.80
2023-05-19T10:49:41.762Z,2.40
2023-05-19T10:52:23.412Z,2.80
2023-05-19T10:54:54.825Z,2.93
2023-05-19T10:57:30.633Z,2.93
2023-05-19T11:00:00.759Z,2.60
2023-05-19T11:02:41.309Z,2.53
2023-05-19T11:05:13.024Z,2.83
2023-05-19T11:07:44.795Z,3.00
2023-05-19T11:10:15.903Z,3.20
2023-05-19T11:12:46.896Z,2.60
2023-05-19T11:15:16.966Z,2.67
2023-05-19T11:17:49.875Z,2.90
2023-05-19T11:20:26.169Z,2.90
2023-05-19T11:23:08.718Z,3.20
2023-05-19T11:25:47.980Z,3.30
2023-05-19T11:28:21.026Z,3.10
2023-05-19T11:30:52.023Z,2.93
2023-05-19T11:33:21.667Z,3.30
2023-05-19T11:35:52.010Z,3.10
2023-05-19T11:38:21.834Z,2.83
2023-05-19T11:40:54.638Z,3.10
2023-05-19T11:43:24.851Z,3.00
2023-05-19T11:45:55.271Z,2.93
2023-05-19T11:48:24.624Z,2.47
2023-05-19T11:50:53.742Z,2.73
2023-05-19T11:53:22.674Z,3.07
2023-05-19T11:55:52.998Z,3.20
2023-05-19T11:58:27.805Z,2.60
2023-05-19T12:00:56.720Z,2.93
2023-05-19T12:03:28.139Z,2.07
2023-05-19T12:05:57.839Z,2.50
2023-05-19T12:08:27.254Z,2.60
2023-05-19T12:10:57.738Z,2.60
2023-05-19T12:13:26.784Z,2.17
2023-05-19T12:15:56.011Z,3.00
2023-05-19T12:18:24.905Z,2.57
2023-05-19T12:20:53.710Z,3.10
2023-05-19T12:23:22.710Z,3.13
2023-05-19T12:25:51.898Z,3.03
2023-05-19T12:28:22.237Z,3.20
2023-05-19T12:30:52.532Z,3.20
2023-05-19T12:33:22.005Z,3.07
2023-05-19T12:35:51.087Z,2.67
2023-05-19T12:38:20.932Z,3.10
2023-05-19T12:40:51.729Z,2.93
2023-05-19T12:43:22.487Z,3.13
2023-05-19T12:45:51.413Z,3.23
2023-05-19T12:48:23.732Z,3.27
2023-05-19T12:50:54.070Z,3.20
2023-05-19T12:53:22.870Z,3.33
2023-05-19T12:55:54.027Z,3.17
2023-05-19T12:58:24.963Z,3.40
2023-05-19T13:00:59.928Z,3.10
2023-05-19T13:03:29.187Z,3.13
2023-05-19T13:05:59.630Z,3.57
2023-05-19T13:08:28.383Z,3.67
2023-05-19T13:10:57.251Z,3.27
2023-05-19T13:13:27.488Z,3.40
2023-05-19T13:15:56.506Z,3.27
2023-05-19T13:18:27.686Z,3.20
2023-05-19T13:20:56.614Z,3.40
2023-05-19T13:23:26.237Z,3.23
2023-05-19T13:25:54.984Z,3.30
2023-05-19T13:28:23.548Z,3.70
2023-05-19T13:30:53.614Z,3.63
2023-05-19T13:33:22.485Z,3.00
2023-05-19T13:35:51.287Z,3.20
2023-05-19T13:38:20.178Z,3.30
2023-05-19T13:40:48.835Z,3.30
2023-05-19T13:43:17.532Z,3.20
2023-05-19T13:45:46.315Z,3.60
2023-05-19T13:48:16.515Z,3.60
2023-05-19T13:50:45.376Z,3.20
2023-05-19T13:53:14.142Z,3.27
2023-05-19T13:55:42.957Z,3.40
2023-05-19T13:58:13.721Z,3.17
2023-05-19T14:00:42.508Z,3.53
2023-05-19T14:03:11.786Z,3.10
2023-05-19T14:05:42.157Z,3.53
2023-05-19T14:08:11.378Z,3.27
2023-05-19T14:10:40.086Z,3.57
2023-05-19T14:15:42.047Z,3.50
2023-05-19T14:18:11.125Z,3.50
2023-05-19T14:20:41.536Z,3.00
2023-05-19T14:23:10.318Z,3.10
2023-05-19T14:25:39.054Z,3.30
2023-05-19T14:28:07.831Z,3.40
2023-05-19T14:30:36.539Z,2.77
2023-05-19T14:33:05.636Z,2.73
2023-05-19T14:35:34.245Z,2.50
2023-05-19T14:38:04.300Z,3.00
2023-05-19T14:40:33.250Z,2.80
2023-05-19T14:43:02.057Z,2.63
2023-05-19T14:45:30.949Z,3.30
2023-05-19T14:47:59.822Z,3.60
2023-05-19T14:50:29.413Z,3.37
2023-05-19T14:52:58.341Z,3.50
2023-05-19T14:55:28.430Z,3.30
2023-05-19T14:57:57.076Z,3.47
2023-05-19T15:00:26.262Z,3.00
2023-05-19T15:02:55.055Z,3.13
2023-05-19T15:05:24.422Z,2.90
2023-05-19T15:07:53.064Z,3.20
2023-05-19T15:10:22.069Z,3.20
2023-05-19T15:12:52.166Z,3.30
2023-05-19T15:15:20.918Z,3.40
2023-05-19T15:17:49.677Z,3.63
2023-05-19T15:20:18.625Z,3.90
2023-05-19T15:22:47.301Z,3.20
2023-05-19T15:25:16.054Z,2.73
2023-05-19T15:27:44.855Z,3.23
2023-05-19T15:30:15.663Z,3.33
2023-05-19T15:32:44.422Z,3.43
2023-05-19T15:35:13.168Z,3.63
2023-05-19T15:37:41.768Z,3.43
2023-05-19T15:40:11.624Z,3.67
2023-05-19T15:42:40.471Z,3.83
2023-05-19T15:45:10.628Z,3.90
2023-05-19T15:47:40.640Z,3.37
2023-05-19T15:50:10.543Z,3.23
2023-05-19T15:52:39.173Z,3.67
2023-05-19T15:55:09.122Z,3.63
2023-05-19T15:57:37.823Z,3.80
2023-05-19T16:00:07.737Z,3.50
2023-05-19T16:02:36.637Z,4.20
2023-05-19T16:05:07.113Z,4.03
2023-05-19T16:07:35.918Z,3.97
2023-05-19T16:10:04.889Z,3.63
2023-05-19T16:12:33.763Z,3.70
2023-05-19T16:15:03.803Z,3.03
2023-05-19T16:17:32.696Z,3.30
2023-05-19T16:20:01.377Z,2.90
2023-05-19T16:22:31.391Z,3.07
2023-05-19T16:25:00.111Z,3.50
2023-05-19T16:27:28.938Z,3.50
2023-05-19T16:29:57.571Z,3.70
2023-05-19T16:32:26.357Z,3.40
2023-05-19T16:34:55.261Z,3.60
2023-05-19T16:37:24.231Z,3.40
2023-05-19T16:39:54.283Z,3.83
2023-05-19T16:42:23.757Z,3.67
2023-05-19T16:44:52.419Z,3.90
2023-05-19T16:47:21.071Z,4.43
2023-05-19T16:49:49.766Z,4.47
2023-05-19T16:52:18.481Z,3.67
2023-05-19T16:54:47.144Z,3.93
2023-05-19T16:57:17.217Z,3.93
2023-05-19T16:59:45.938Z,4.40
2023-05-19T17:02:14.611Z,4.10
2023-05-19T17:04:43.283Z,3.90
2023-05-19T17:07:15.694Z,4.03
2023-05-19T17:09:44.844Z,4.30
2023-05-19T17:12:13.845Z,4.00
2023-05-19T17:14:44.202Z,3.90
2023-05-19T17:17:13.563Z,4.33
2023-05-19T17:19:42.789Z,4.10
2023-05-19T17:22:11.629Z,4.30
2023-05-19T17:24:40.263Z,4.07
2023-05-19T17:27:08.900Z,4.63
2023-05-19T17:29:37.560Z,4.10
2023-05-19T17:32:08.291Z,4.63
2023-05-19T17:34:37.009Z,4.10
2023-05-19T17:37:05.975Z,4.73
2023-05-19T17:39:34.649Z,5.03
2023-05-19T17:42:03.367Z,4.30
2023-05-19T17:44:32.121Z,4.63
2023-05-19T17:47:02.324Z,5.00
2023-05-19T17:49:32.406Z,5.43
2023-05-19T17:52:01.708Z,4.70
2023-05-19T17:54:30.984Z,4.43
2023-05-19T17:57:03.300Z,4.77
2023-05-19T17:59:32.531Z,4.43
2023-05-19T18:02:01.838Z,4.60
2023-05-19T18:04:32.733Z,4.30
2023-05-19T18:07:03.652Z,4.63
2023-05-19T18:09:35.987Z,4.60
2023-05-19T18:12:05.386Z,5.13
2023-05-19T18:14:34.008Z,4.73
2023-05-19T18:17:02.660Z,4.97
2023-05-19T18:19:32.951Z,5.23
2023-05-19T18:22:01.731Z,4.40
2023-05-19T18:24:30.447Z,4.60
2023-05-19T18:26:59.326Z,5.03
2023-05-19T18:29:27.977Z,4.93
2023-05-19T18:31:56.828Z,4.67
2023-05-19T18:34:27.611Z,4.63
2023-05-19T18:36:57.705Z,4.90
2023-05-19T18:39:29.139Z,4.43
2023-05-19T18:41:58.514Z,5.40
2023-05-19T18:44:27.179Z,4.27
2023-05-19T18:46:55.816Z,4.80
2023-05-19T18:49:25.354Z,4.37
2023-05-19T18:51:54.059Z,5.40
2023-05-19T18:54:24.910Z,5.67
2023-05-19T18:56:53.728Z,6.03
2023-05-19T18:59:23.675Z,5.77
2023-05-19T19:01:53.943Z,5.37
2023-05-19T19:04:23.064Z,6.10
2023-05-19T19:06:52.372Z,5.00
2023-05-19T19:09:21.041Z,5.47
2023-05-19T19:11:51.389Z,6.07
2023-05-19T19:14:20.386Z,6.47
2023-05-19T19:16:48.995Z,5.80
2023-05-19T19:19:17.921Z,5.47
2023-05-19T19:21:46.661Z,5.90
2023-05-19T19:24:15.389Z,5.67
2023-05-19T19:26:44.181Z,6.17
2023-05-19T19:29:16.669Z,5.70
2023-05-19T19:31:45.430Z,5.90
2023-05-19T19:34:14.129Z,5.90
2023-05-19T19:36:43.920Z,5.73
2023-05-19T19:39:12.537Z,6.10
2023-05-19T19:41:41.507Z,5.57
2023-05-19T19:44:10.321Z,6.00
2023-05-19T19:46:40.317Z,6.10
2023-05-19T19:49:09.054Z,5.47
2023-05-19T19:51:37.823Z,6.40
2023-05-19T19:54:06.449Z,6.13
2023-05-19T19:56:35.267Z,6.10
2023-05-19T19:59:03.955Z,6.00
2023-05-19T20:01:33.751Z,6.20
2023-05-19T20:04:04.173Z,6.17
2023-05-19T20:06:33.265Z,5.90
2023-05-19T20:09:01.854Z,6.50
2023-05-19T20:11:30.569Z,7.13
2023-05-19T20:13:59.230Z,6.70
2023-05-19T20:16:28.092Z,7.10
2023-05-19T20:18:56.922Z,7.07
2023-05-19T20:21:27.157Z,7.27
2023-05-19T20:23:55.856Z,7.43
2023-05-19T20:26:24.453Z,7.10
2023-05-19T20:28:53.192Z,7.20
2023-05-19T20:31:23.625Z,7.13
2023-05-19T20:33:52.585Z,7.47
2023-05-19T20:36:21.407Z,7.63
2023-05-19T20:38:51.723Z,7.80
2023-05-19T20:41:20.785Z,7.87
2023-05-19T20:43:49.539Z,7.00
2023-05-19T20:46:18.411Z,7.77
2023-05-19T20:48:47.029Z,7.33
2023-05-19T20:51:15.778Z,7.40
2023-05-19T20:53:44.516Z,7.17
2023-05-19T20:56:14.492Z,7.97
2023-05-19T20:58:43.269Z,8.17
2023-05-19T21:01:12.104Z,8.17
2023-05-19T21:03:40.863Z,8.00
2023-05-19T21:06:09.810Z,7.97
2023-05-19T21:08:38.899Z,7.50
2023-05-19T21:11:07.764Z,8.17
2023-05-19T21:13:39.359Z,7.97
2023-05-19T21:16:08.300Z,8.17
2023-05-19T21:18:36.964Z,7.90
2023-05-19T21:21:05.888Z,8.37
2023-05-19T21:23:34.549Z,8.90
2023-05-19T21:26:04.239Z,7.83
2023-05-19T21:28:32.963Z,8.80
2023-05-19T21:31:05.357Z,7.80
2023-05-19T21:33:34.024Z,8.13
2023-05-19T21:36:02.710Z,7.83
2023-05-19T21:38:34.028Z,8.40
2023-05-19T21:41:02.706Z,7.90
2023-05-19T21:43:31.410Z,8.70
2023-05-19T21:46:00.101Z,7.97
2023-05-19T21:48:30.196Z,7.73
2023-05-19T21:50:58.952Z,8.50
2023-05-19T21:53:27.665Z,7.97
2023-05-19T21:55:56.375Z,8.20
2023-05-19T21:58:25.172Z,8.37
2023-05-19T22:00:56.062Z,8.73
2023-05-19T22:03:24.994Z,9.20
2023-05-19T22:05:56.561Z,8.17
2023-05-19T22:08:26.068Z,8.90
2023-05-19T22:10:54.939Z,9.03
2023-05-19T22:13:23.634Z,9.80
2023-05-19T22:15:52.394Z,9.33
2023-05-19T22:18:21.429Z,9.17
2023-05-19T22:20:50.145Z,9.03
2023-05-19T22:23:20.562Z,9.70
2023-05-19T22:25:49.404Z,9.63
2023-05-19T22:28:18.034Z,9.07
2023-05-19T22:30:46.715Z,9.67
2023-05-19T22:33:15.332Z,10.33
2023-05-19T22:35:44.028Z,9.87
2023-05-19T22:38:12.932Z,9.93
2023-05-19T22:40:42.944Z,9.83
2023-05-19T22:43:11.619Z,10.00
2023-05-19T22:45:40.699Z,10.53
2023-05-19T22:48:09.433Z,10.77
2023-05-19T22:50:38.063Z,10.23
2023-05-19T22:53:06.756Z,10.83
2023-05-19T22:55:35.620Z,11.33
2023-05-19T22:58:07.446Z,12.03
2023-05-19T23:00:36.191Z,11.93
2023-05-19T23:03:05.045Z,11.73
2023-05-19T23:05:33.891Z,11.43
2023-05-19T23:08:02.707Z,11.03
2023-05-19T23:10:31.463Z,12.00
2023-05-19T23:13:00.140Z,11.60
2023-05-19T23:15:30.196Z,11.50
2023-05-19T23:17:58.990Z,12.30
2023-05-19T23:20:27.727Z,11.87
2023-05-19T23:22:56.398Z,12.53
2023-05-19T23:25:25.102Z,12.33
2023-05-19T23:27:53.916Z,12.57
2023-05-19T23:30:22.696Z,12.60
2023-05-19T23:32:53.328Z,12.70
2023-05-19T23:35:22.602Z,12.80
2023-05-19T23:37:51.738Z,12.53
2023-05-19T23:40:20.922Z,13.07
2023-05-19T23:42:49.575Z,13.70
2023-05-19T23:45:18.514Z,13.00
2023-05-19T23:47:47.192Z,12.23
2023-05-19T23:50:17.480Z,13.47
2023-05-19T23:52:46.114Z,12.37
2023-05-19T23:55:15.080Z,13.47
2023-05-19T23:57:44.128Z,12.33
